sensor_id;sensor_type;location;lat;lon;timestamp;pressure;altitude;pressure_sealevel;temperature;humidity
51245;BME280;37840;47.562;18.738;2023-02-02T00:00:54;99479.84;;;5.21;71.95
51245;BME280;37840;47.562;18.738;2023-02-02T00:03:20;99485.66;;;5.27;71.06
51245;BME280;37840;47.562;18.738;2023-02-02T00:05:51;99484.19;;;5.22;71.10
51245;BME280;37840;47.562;18.738;2023-02-02T00:08:19;99479.75;;;5.22;70.22
51245;BME280;37840;47.562;18.738;2023-02-02T00:10:46;99472.09;;;5.18;69.67
51245;BME280;37840;47.562;18.738;2023-02-02T00:13:13;99467.66;;;5.18;69.66
51245;BME280;37840;47.562;18.738;2023-02-02T00:15:39;99472.94;;;5.18;69.91
51245;BME280;37840;47.562;18.738;2023-02-02T00:18:05;99475.56;;;5.18;69.59
51245;BME280;37840;47.562;18.738;2023-02-02T00:20:32;99483.59;;;5.17;69.38
51245;BME280;37840;47.562;18.738;2023-02-02T00:23:01;99485.19;;;5.19;69.42
51245;BME280;37840;47.562;18.738;2023-02-02T00:25:27;99508.91;;;5.19;69.38
51245;BME280;37840;47.562;18.738;2023-02-02T00:27:53;99508.66;;;5.24;68.96
51245;BME280;37840;47.562;18.738;2023-02-02T00:30:19;99466.31;;;5.27;67.53
51245;BME280;37840;47.562;18.738;2023-02-02T00:32:45;99455.69;;;5.28;68.01
51245;BME280;37840;47.562;18.738;2023-02-02T00:35:14;99444.31;;;5.28;68.63
51245;BME280;37840;47.562;18.738;2023-02-02T00:37:40;99469.31;;;5.21;69.54
51245;BME280;37840;47.562;18.738;2023-02-02T00:40:07;99467.78;;;5.17;69.87
51245;BME280;37840;47.562;18.738;2023-02-02T00:42:34;99488.94;;;5.15;70.36
51245;BME280;37840;47.562;18.738;2023-02-02T00:45:00;99498.87;;;5.10;70.56
51245;BME280;37840;47.562;18.738;2023-02-02T00:47:48;99495.47;;;5.08;70.87
51245;BME280;37840;47.562;18.738;2023-02-02T00:50:16;99492.19;;;5.03;71.31
51245;BME280;37840;47.562;18.738;2023-02-02T00:52:45;99522.34;;;4.97;71.98
51245;BME280;37840;47.562;18.738;2023-02-02T00:55:12;99515.88;;;4.87;72.52
51245;BME280;37840;47.562;18.738;2023-02-02T00:57:39;99530.91;;;4.85;72.71
51245;BME280;37840;47.562;18.738;2023-02-02T01:00:07;99536.00;;;4.88;73.16
51245;BME280;37840;47.562;18.738;2023-02-02T01:02:34;99538.63;;;4.88;73.11
51245;BME280;37840;47.562;18.738;2023-02-02T01:05:00;99537.16;;;4.82;73.19
51245;BME280;37840;47.562;18.738;2023-02-02T01:07:27;99528.28;;;4.85;73.21
51245;BME280;37840;47.562;18.738;2023-02-02T01:09:53;99518.03;;;4.79;73.23
51245;BME280;37840;47.562;18.738;2023-02-02T01:12:19;99525.09;;;4.78;73.35
51245;BME280;37840;47.562;18.738;2023-02-02T01:14:45;99519.91;;;4.77;73.73
51245;BME280;37840;47.562;18.738;2023-02-02T01:17:12;99521.75;;;4.75;73.86
51245;BME280;37840;47.562;18.738;2023-02-02T01:19:39;99526.38;;;4.69;74.10
51245;BME280;37840;47.562;18.738;2023-02-02T01:22:06;99534.38;;;4.68;74.36
51245;BME280;37840;47.562;18.738;2023-02-02T01:24:32;99540.03;;;4.60;74.59
51245;BME280;37840;47.562;18.738;2023-02-02T01:26:58;99538.25;;;4.61;74.38
51245;BME280;37840;47.562;18.738;2023-02-02T01:29:24;99536.56;;;4.60;74.50
51245;BME280;37840;47.562;18.738;2023-02-02T01:31:50;99547.09;;;4.60;74.57
51245;BME280;37840;47.562;18.738;2023-02-02T01:34:16;99538.41;;;4.58;74.67
51245;BME280;37840;47.562;18.738;2023-02-02T01:36:42;99539.41;;;4.55;74.90
51245;BME280;37840;47.562;18.738;2023-02-02T01:39:07;99519.97;;;4.58;74.74
51245;BME280;37840;47.562;18.738;2023-02-02T01:41:33;99505.09;;;4.57;74.85
51245;BME280;37840;47.562;18.738;2023-02-02T01:44:02;99505.97;;;4.57;74.69
51245;BME280;37840;47.562;18.738;2023-02-02T01:46:31;99510.53;;;4.54;74.54
51245;BME280;37840;47.562;18.738;2023-02-02T01:49:12;99510.44;;;4.55;74.40
51245;BME280;37840;47.562;18.738;2023-02-02T01:54:19;99493.00;;;4.53;74.83
51245;BME280;37840;47.562;18.738;2023-02-02T01:56:52;99476.53;;;4.49;75.04
51245;BME280;37840;47.562;18.738;2023-02-02T01:59:20;99472.28;;;4.46;75.19
51245;BME280;37840;47.562;18.738;2023-02-02T02:01:47;99472.28;;;4.46;75.31
51245;BME280;37840;47.562;18.738;2023-02-02T02:04:14;99473.25;;;4.44;75.50
51245;BME280;37840;47.562;18.738;2023-02-02T02:06:40;99473.13;;;4.47;75.54
51245;BME280;37840;47.562;18.738;2023-02-02T02:09:07;99455.53;;;4.47;75.78
51245;BME280;37840;47.562;18.738;2023-02-02T02:11:34;99437.87;;;4.49;75.89
51245;BME280;37840;47.562;18.738;2023-02-02T02:14:05;99441.34;;;4.50;76.13
51245;BME280;37840;47.562;18.738;2023-02-02T02:20:15;99433.62;;;4.47;76.22
51245;BME280;37840;47.562;18.738;2023-02-02T02:30:40;99472.16;;;4.48;76.47
51245;BME280;37840;47.562;18.738;2023-02-02T02:32:56;99485.56;;;4.43;76.62
51245;BME280;37840;47.562;18.738;2023-02-02T02:38:25;99471.88;;;4.37;76.88
51245;BME280;37840;47.562;18.738;2023-02-02T02:41:01;99473.72;;;4.35;77.07
51245;BME280;37840;47.562;18.738;2023-02-02T02:43:34;99472.09;;;4.32;77.18
51245;BME280;37840;47.562;18.738;2023-02-02T02:46:02;99471.16;;;4.33;77.17
51245;BME280;37840;47.562;18.738;2023-02-02T02:48:29;99478.22;;;4.33;77.29
51245;BME280;37840;47.562;18.738;2023-02-02T02:51:38;99479.28;;;4.28;77.41
51245;BME280;37840;47.562;18.738;2023-02-02T02:53:54;99470.47;;;4.29;77.56
51245;BME280;37840;47.562;18.738;2023-02-02T02:56:46;99467.97;;;4.26;77.68
51245;BME280;37840;47.562;18.738;2023-02-02T03:00:09;99476.66;;;4.28;77.63
51245;BME280;37840;47.562;18.738;2023-02-02T03:02:21;99465.28;;;4.28;77.61
51245;BME280;37840;47.562;18.738;2023-02-02T03:08:13;99465.59;;;4.22;77.98
51245;BME280;37840;47.562;18.738;2023-02-02T03:10:43;99470.06;;;4.20;78.01
51245;BME280;37840;47.562;18.738;2023-02-02T03:13:12;99471.00;;;4.19;77.90
51245;BME280;37840;47.562;18.738;2023-02-02T03:15:42;99475.63;;;4.14;77.83
51245;BME280;37840;47.562;18.738;2023-02-02T03:18:12;99468.75;;;4.11;77.86
51245;BME280;37840;47.562;18.738;2023-02-02T03:20:39;99477.72;;;4.07;77.72
51245;BME280;37840;47.562;18.738;2023-02-02T03:23:04;99494.34;;;4.07;77.62
51245;BME280;37840;47.562;18.738;2023-02-02T03:25:30;99486.53;;;4.06;77.52
51245;BME280;37840;47.562;18.738;2023-02-02T03:27:57;99482.97;;;4.07;77.40
51245;BME280;37840;47.562;18.738;2023-02-02T03:30:23;99483.81;;;4.07;77.00
51245;BME280;37840;47.562;18.738;2023-02-02T03:32:50;99483.03;;;4.05;77.12
51245;BME280;37840;47.562;18.738;2023-02-02T03:35:17;99487.47;;;4.05;76.89
51245;BME280;37840;47.562;18.738;2023-02-02T03:37:46;99487.62;;;4.02;76.87
51245;BME280;37840;47.562;18.738;2023-02-02T03:40:12;99489.31;;;4.03;76.71
51245;BME280;37840;47.562;18.738;2023-02-02T03:42:38;99499.00;;;4.02;76.58
51245;BME280;37840;47.562;18.738;2023-02-02T03:45:05;99505.37;;;3.97;76.65
51245;BME280;37840;47.562;18.738;2023-02-02T03:47:31;99508.78;;;3.99;76.75
51245;BME280;37840;47.562;18.738;2023-02-02T03:49:57;99499.28;;;3.96;76.84
51245;BME280;37840;47.562;18.738;2023-02-02T03:52:24;99501.06;;;3.96;76.82
51245;BME280;37840;47.562;18.738;2023-02-02T03:54:50;99501.97;;;3.95;76.53
51245;BME280;37840;47.562;18.738;2023-02-02T03:57:17;99487.56;;;3.84;76.45
51245;BME280;37840;47.562;18.738;2023-02-02T03:59:43;99487.56;;;3.84;76.19
51245;BME280;37840;47.562;18.738;2023-02-02T04:02:09;99497.28;;;3.82;76.12
51245;BME280;37840;47.562;18.738;2023-02-02T04:04:35;99498.06;;;3.84;76.06
51245;BME280;37840;47.562;18.738;2023-02-02T04:07:01;99499.22;;;3.79;75.99
51245;BME280;37840;47.562;18.738;2023-02-02T04:09:27;99501.94;;;3.77;75.91
51245;BME280;37840;47.562;18.738;2023-02-02T04:11:53;99502.72;;;3.79;75.81
51245;BME280;37840;47.562;18.738;2023-02-02T04:14:19;99508.13;;;3.76;75.57
51245;BME280;37840;47.562;18.738;2023-02-02T04:16:45;99508.25;;;3.73;75.53
51245;BME280;37840;47.562;18.738;2023-02-02T04:19:11;99512.59;;;3.74;75.55
51245;BME280;37840;47.562;18.738;2023-02-02T04:21:40;99502.16;;;3.73;75.50
51245;BME280;37840;47.562;18.738;2023-02-02T04:24:09;99514.50;;;3.71;75.41
51245;BME280;37840;47.562;18.738;2023-02-02T04:26:35;99510.25;;;3.68;75.30
51245;BME280;37840;47.562;18.738;2023-02-02T04:29:02;99510.47;;;3.63;75.41
51245;BME280;37840;47.562;18.738;2023-02-02T04:31:28;99514.00;;;3.62;75.40
51245;BME280;37840;47.562;18.738;2023-02-02T04:33:55;99511.59;;;3.58;75.46
51245;BME280;37840;47.562;18.738;2023-02-02T04:36:21;99512.66;;;3.54;75.70
51245;BME280;37840;47.562;18.738;2023-02-02T04:38:49;99497.00;;;3.51;75.74
51245;BME280;37840;47.562;18.738;2023-02-02T04:41:15;99515.41;;;3.51;75.70
51245;BME280;37840;47.562;18.738;2023-02-02T04:43:43;99509.25;;;3.52;75.66
51245;BME280;37840;47.562;18.738;2023-02-02T04:46:10;99523.31;;;3.51;75.60
51245;BME280;37840;47.562;18.738;2023-02-02T04:48:36;99522.56;;;3.49;75.54
51245;BME280;37840;47.562;18.738;2023-02-02T04:51:05;99523.19;;;3.54;75.21
51245;BME280;37840;47.562;18.738;2023-02-02T04:53:31;99528.66;;;3.49;75.25
51245;BME280;37840;47.562;18.738;2023-02-02T04:56:07;99526.09;;;3.47;75.12
51245;BME280;37840;47.562;18.738;2023-02-02T04:58:33;99513.09;;;3.44;75.25
51245;BME280;37840;47.562;18.738;2023-02-02T05:00:59;99530.56;;;3.45;75.02
51245;BME280;37840;47.562;18.738;2023-02-02T05:03:25;99534.19;;;3.43;75.24
51245;BME280;37840;47.562;18.738;2023-02-02T05:06:00;99524.56;;;3.42;75.17
51245;BME280;37840;47.562;18.738;2023-02-02T05:08:26;99529.00;;;3.41;75.30
51245;BME280;37840;47.562;18.738;2023-02-02T05:10:52;99527.56;;;3.34;75.62
51245;BME280;37840;47.562;18.738;2023-02-02T05:13:18;99535.84;;;3.25;75.80
51245;BME280;37840;47.562;18.738;2023-02-02T05:15:44;99538.69;;;3.20;76.23
51245;BME280;37840;47.562;18.738;2023-02-02T05:18:10;99544.78;;;3.21;76.41
51245;BME280;37840;47.562;18.738;2023-02-02T05:20:35;99541.56;;;3.14;76.72
51245;BME280;37840;47.562;18.738;2023-02-02T05:23:01;99551.13;;;3.17;76.76
51245;BME280;37840;47.562;18.738;2023-02-02T05:25:27;99555.66;;;3.13;76.82
51245;BME280;37840;47.562;18.738;2023-02-02T05:27:53;99562.59;;;3.14;76.86
51245;BME280;37840;47.562;18.738;2023-02-02T05:30:19;99569.56;;;3.15;76.87
51245;BME280;37840;47.562;18.738;2023-02-02T05:32:45;99568.72;;;3.15;76.84
51245;BME280;37840;47.562;18.738;2023-02-02T05:35:11;99568.78;;;3.13;76.89
51245;BME280;37840;47.562;18.738;2023-02-02T05:37:37;99567.00;;;3.14;76.86
51245;BME280;37840;47.562;18.738;2023-02-02T05:40:03;99565.09;;;3.17;76.65
51245;BME280;37840;47.562;18.738;2023-02-02T05:42:29;99554.44;;;3.20;76.51
51245;BME280;37840;47.562;18.738;2023-02-02T05:44:55;99554.44;;;3.20;76.39
51245;BME280;37840;47.562;18.738;2023-02-02T05:47:21;99557.88;;;3.22;76.17
51245;BME280;37840;47.562;18.738;2023-02-02T05:49:48;99550.75;;;3.24;75.99
51245;BME280;37840;47.562;18.738;2023-02-02T05:52:17;99555.22;;;3.22;76.05
51245;BME280;37840;47.562;18.738;2023-02-02T05:54:44;99550.03;;;3.21;76.03
51245;BME280;37840;47.562;18.738;2023-02-02T05:57:10;99557.88;;;3.22;75.92
51245;BME280;37840;47.562;18.738;2023-02-02T05:59:36;99536.06;;;3.20;75.91
51245;BME280;37840;47.562;18.738;2023-02-02T06:02:02;99543.34;;;3.14;75.94
51245;BME280;37840;47.562;18.738;2023-02-02T06:04:28;99537.38;;;3.10;76.19
51245;BME280;37840;47.562;18.738;2023-02-02T06:06:54;99536.53;;;3.10;76.10
51245;BME280;37840;47.562;18.738;2023-02-02T06:09:20;99531.41;;;3.06;76.27
51245;BME280;37840;47.562;18.738;2023-02-02T06:11:48;99527.06;;;3.05;76.11
51245;BME280;37840;47.562;18.738;2023-02-02T06:14:14;99515.88;;;3.02;76.16
51245;BME280;37840;47.562;18.738;2023-02-02T06:16:40;99518.56;;;3.00;76.23
51245;BME280;37840;47.562;18.738;2023-02-02T06:19:06;99511.47;;;3.02;76.03
51245;BME280;37840;47.562;18.738;2023-02-02T06:21:32;99515.91;;;3.00;76.02
51245;BME280;37840;47.562;18.738;2023-02-02T06:23:58;99518.28;;;3.06;75.83
51245;BME280;37840;47.562;18.738;2023-02-02T06:26:24;99520.37;;;3.19;75.47
51245;BME280;37840;47.562;18.738;2023-02-02T06:28:52;99519.13;;;3.46;74.79
51245;BME280;37840;47.562;18.738;2023-02-02T06:31:19;99512.00;;;3.86;72.90
51245;BME280;37840;47.562;18.738;2023-02-02T06:33:46;99509.53;;;4.20;71.70
51245;BME280;37840;47.562;18.738;2023-02-02T06:36:13;99513.00;;;4.74;70.04
51245;BME280;37840;47.562;18.738;2023-02-02T06:38:42;99496.38;;;5.40;66.96
51245;BME280;37840;47.562;18.738;2023-02-02T06:41:08;99505.75;;;5.78;64.91
51245;BME280;37840;47.562;18.738;2023-02-02T06:43:33;99513.63;;;6.27;63.36
51245;BME280;37840;47.562;18.738;2023-02-02T06:45:59;99519.94;;;6.85;60.83
51245;BME280;37840;47.562;18.738;2023-02-02T06:48:26;99519.91;;;7.58;58.61
51245;BME280;37840;47.562;18.738;2023-02-02T06:50:52;99511.66;;;8.19;56.34
51245;BME280;37840;47.562;18.738;2023-02-02T06:53:18;99515.94;;;8.88;53.95
51245;BME280;37840;47.562;18.738;2023-02-02T06:55:58;99514.97;;;9.53;52.44
51245;BME280;37840;47.562;18.738;2023-02-02T06:58:26;99508.63;;;10.30;49.65
51245;BME280;37840;47.562;18.738;2023-02-02T07:00:52;99530.28;;;10.96;47.85
51245;BME280;37840;47.562;18.738;2023-02-02T07:03:20;99529.25;;;11.32;46.51
51245;BME280;37840;47.562;18.738;2023-02-02T07:05:49;99527.97;;;11.72;44.75
51245;BME280;37840;47.562;18.738;2023-02-02T07:08:15;99534.09;;;12.29;43.27
51245;BME280;37840;47.562;18.738;2023-02-02T07:10:41;99529.22;;;12.66;42.05
51245;BME280;37840;47.562;18.738;2023-02-02T07:13:09;99534.81;;;13.16;41.55
51245;BME280;37840;47.562;18.738;2023-02-02T07:15:37;99538.59;;;13.56;40.18
51245;BME280;37840;47.562;18.738;2023-02-02T07:18:04;99540.28;;;13.97;38.87
51245;BME280;37840;47.562;18.738;2023-02-02T07:20:30;99538.22;;;13.39;39.36
51245;BME280;37840;47.562;18.738;2023-02-02T07:22:56;99540.31;;;12.18;41.91
51245;BME280;37840;47.562;18.738;2023-02-02T07:25:22;99544.78;;;11.50;43.81
51245;BME280;37840;47.562;18.738;2023-02-02T07:27:52;99541.25;;;11.49;43.88
51245;BME280;37840;47.562;18.738;2023-02-02T07:30:18;99550.94;;;12.29;42.70
51245;BME280;37840;47.562;18.738;2023-02-02T07:32:48;99542.16;;;12.82;41.10
51245;BME280;37840;47.562;18.738;2023-02-02T07:35:16;99548.12;;;12.74;41.30
51245;BME280;37840;47.562;18.738;2023-02-02T07:37:42;99552.81;;;13.35;40.18
51245;BME280;37840;47.562;18.738;2023-02-02T07:40:08;99544.75;;;14.37;37.99
51245;BME280;37840;47.562;18.738;2023-02-02T07:42:35;99556.78;;;14.82;36.58
51245;BME280;37840;47.562;18.738;2023-02-02T07:45:01;99549.38;;;14.45;37.04
51245;BME280;37840;47.562;18.738;2023-02-02T07:47:27;99565.87;;;13.90;38.37
51245;BME280;37840;47.562;18.738;2023-02-02T07:49:53;99569.63;;;13.15;39.72
51245;BME280;37840;47.562;18.738;2023-02-02T07:52:19;99560.47;;;13.08;40.51
51245;BME280;37840;47.562;18.738;2023-02-02T07:54:45;99562.28;;;12.86;40.45
51245;BME280;37840;47.562;18.738;2023-02-02T07:57:11;99566.00;;;12.51;41.41
51245;BME280;37840;47.562;18.738;2023-02-02T07:59:38;99554.97;;;11.90;42.56
51245;BME280;37840;47.562;18.738;2023-02-02T08:02:04;99557.88;;;10.95;44.56
51245;BME280;37840;47.562;18.738;2023-02-02T08:04:30;99551.59;;;10.11;46.97
51245;BME280;37840;47.562;18.738;2023-02-02T08:06:58;99557.03;;;9.47;48.59
51245;BME280;37840;47.562;18.738;2023-02-02T08:09:24;99551.81;;;9.45;49.23
51245;BME280;37840;47.562;18.738;2023-02-02T08:11:50;99562.09;;;9.50;49.09
51245;BME280;37840;47.562;18.738;2023-02-02T08:14:16;99555.44;;;9.44;49.62
51245;BME280;37840;47.562;18.738;2023-02-02T08:16:42;99564.09;;;9.85;48.77
51245;BME280;37840;47.562;18.738;2023-02-02T08:19:11;99562.31;;;9.72;48.42
51245;BME280;37840;47.562;18.738;2023-02-02T08:21:37;99573.25;;;9.16;49.80
51245;BME280;37840;47.562;18.738;2023-02-02T08:24:03;99580.44;;;8.62;51.63
51245;BME280;37840;47.562;18.738;2023-02-02T08:26:30;99579.56;;;8.20;53.01
51245;BME280;37840;47.562;18.738;2023-02-02T08:29:04;99572.28;;;8.23;52.93
51245;BME280;37840;47.562;18.738;2023-02-02T08:31:36;99574.66;;;8.13;53.69
51245;BME280;37840;47.562;18.738;2023-02-02T08:34:03;99570.81;;;7.90;53.31
51245;BME280;37840;47.562;18.738;2023-02-02T08:36:30;99569.13;;;7.61;54.26
51245;BME280;37840;47.562;18.738;2023-02-02T08:39:00;99567.25;;;7.48;54.93
51245;BME280;37840;47.562;18.738;2023-02-02T08:41:26;99548.25;;;7.70;55.75
51245;BME280;37840;47.562;18.738;2023-02-02T08:43:53;99558.91;;;7.97;55.06
51245;BME280;37840;47.562;18.738;2023-02-02T08:46:19;99545.53;;;8.13;54.38
51245;BME280;37840;47.562;18.738;2023-02-02T08:48:46;99557.88;;;8.00;54.13
51245;BME280;37840;47.562;18.738;2023-02-02T08:51:15;99570.38;;;7.69;54.46
51245;BME280;37840;47.562;18.738;2023-02-02T08:53:44;99556.78;;;7.47;55.80
51245;BME280;37840;47.562;18.738;2023-02-02T08:56:19;99573.00;;;7.26;55.82
51245;BME280;37840;47.562;18.738;2023-02-02T08:58:47;99578.34;;;7.10;55.91
51245;BME280;37840;47.562;18.738;2023-02-02T09:01:22;99570.75;;;6.90;56.43
51245;BME280;37840;47.562;18.738;2023-02-02T09:03:52;99569.56;;;6.80;56.47
51245;BME280;37840;47.562;18.738;2023-02-02T09:06:19;99567.81;;;6.64;56.44
51245;BME280;37840;47.562;18.738;2023-02-02T09:08:46;99565.72;;;6.55;57.61
51245;BME280;37840;47.562;18.738;2023-02-02T09:11:17;99568.78;;;6.47;57.97
51245;BME280;37840;47.562;18.738;2023-02-02T09:13:44;99565.47;;;6.44;57.78
51245;BME280;37840;47.562;18.738;2023-02-02T09:16:12;99572.72;;;6.40;57.87
51245;BME280;37840;47.562;18.738;2023-02-02T09:18:39;99578.28;;;6.36;58.57
51245;BME280;37840;47.562;18.738;2023-02-02T09:21:07;99581.00;;;6.34;58.35
51245;BME280;37840;47.562;18.738;2023-02-02T09:23:36;99585.75;;;6.43;58.69
51245;BME280;37840;47.562;18.738;2023-02-02T09:26:08;99586.72;;;6.72;58.07
51245;BME280;37840;47.562;18.738;2023-02-02T09:28:37;99577.34;;;6.83;57.16
51245;BME280;37840;47.562;18.738;2023-02-02T09:31:04;99589.84;;;6.95;57.19
51245;BME280;37840;47.562;18.738;2023-02-02T09:33:30;99588.44;;;7.04;56.97
51245;BME280;37840;47.562;18.738;2023-02-02T09:36:05;99588.16;;;7.08;57.48
51245;BME280;37840;47.562;18.738;2023-02-02T09:38:32;99598.06;;;7.05;57.07
51245;BME280;37840;47.562;18.738;2023-02-02T09:40:58;99601.38;;;7.08;57.24
51245;BME280;37840;47.562;18.738;2023-02-02T09:49:07;99616.78;;;7.75;56.66
51245;BME280;37840;47.562;18.738;2023-02-02T09:51:38;99596.53;;;7.88;55.71
51245;BME280;37840;47.562;18.738;2023-02-02T09:56:42;99597.19;;;8.06;54.02
51245;BME280;37840;47.562;18.738;2023-02-02T09:59:19;99609.78;;;8.03;55.02
51245;BME280;37840;47.562;18.738;2023-02-02T10:01:51;99609.50;;;7.79;54.79
51245;BME280;37840;47.562;18.738;2023-02-02T10:04:28;99608.28;;;7.70;55.79
51245;BME280;37840;47.562;18.738;2023-02-02T10:07:05;99611.97;;;7.82;55.69
51245;BME280;37840;47.562;18.738;2023-02-02T10:16:53;99605.16;;;8.06;53.99
51245;BME280;37840;47.562;18.738;2023-02-02T10:19:22;99614.22;;;7.88;55.14
51245;BME280;37840;47.562;18.738;2023-02-02T10:22:04;99592.13;;;7.74;55.00
51245;BME280;37840;47.562;18.738;2023-02-02T10:24:35;99599.00;;;7.63;54.74
51245;BME280;37840;47.562;18.738;2023-02-02T10:27:04;99600.34;;;7.55;55.28
51245;BME280;37840;47.562;18.738;2023-02-02T10:29:48;99602.59;;;7.47;54.52
51245;BME280;37840;47.562;18.738;2023-02-02T10:32:24;99608.28;;;7.55;55.28
51245;BME280;37840;47.562;18.738;2023-02-02T10:37:31;99630.22;;;7.72;55.61
51245;BME280;37840;47.562;18.738;2023-02-02T10:46:02;99622.00;;;7.91;54.89
51245;BME280;37840;47.562;18.738;2023-02-02T10:48:32;99632.38;;;8.08;54.36
51245;BME280;37840;47.562;18.738;2023-02-02T10:51:11;99608.91;;;8.16;54.73
51245;BME280;37840;47.562;18.738;2023-02-02T10:53:42;99612.19;;;8.20;53.91
51245;BME280;37840;47.562;18.738;2023-02-02T10:56:17;99605.31;;;8.17;54.25
51245;BME280;37840;47.562;18.738;2023-02-02T11:01:46;99630.66;;;8.07;54.04
51245;BME280;37840;47.562;18.738;2023-02-02T11:04:13;99637.78;;;8.07;54.96
51245;BME280;37840;47.562;18.738;2023-02-02T11:06:57;99633.06;;;7.97;54.00
51245;BME280;37840;47.562;18.738;2023-02-02T11:09:26;99634.28;;;7.92;53.92
51245;BME280;37840;47.562;18.738;2023-02-02T11:11:56;99642.87;;;7.81;54.67
51245;BME280;37840;47.562;18.738;2023-02-02T11:14:36;99641.38;;;7.77;54.45
51245;BME280;37840;47.562;18.738;2023-02-02T11:17:05;99648.91;;;7.69;54.90
51245;BME280;37840;47.562;18.738;2023-02-02T11:19:33;99639.09;;;7.57;55.09
51245;BME280;37840;47.562;18.738;2023-02-02T11:22:01;99645.50;;;7.52;54.83
51245;BME280;37840;47.562;18.738;2023-02-02T11:24:45;99642.09;;;7.50;55.66
51245;BME280;37840;47.562;18.738;2023-02-02T11:30:18;99637.19;;;7.44;55.31
51245;BME280;37840;47.562;18.738;2023-02-02T11:32:46;99626.13;;;7.38;54.86
51245;BME280;37840;47.562;18.738;2023-02-02T11:35:18;99638.75;;;7.32;55.15
51245;BME280;37840;47.562;18.738;2023-02-02T11:43:16;99626.53;;;7.15;55.92
51245;BME280;37840;47.562;18.738;2023-02-02T11:45:44;99623.12;;;7.13;56.38
51245;BME280;37840;47.562;18.738;2023-02-02T11:48:22;99618.31;;;7.20;56.86
51245;BME280;37840;47.562;18.738;2023-02-02T11:50:54;99619.47;;;7.30;57.20
51245;BME280;37840;47.562;18.738;2023-02-02T11:53:26;99616.53;;;7.35;55.73
51245;BME280;37840;47.562;18.738;2023-02-02T11:55:54;99618.94;;;7.40;56.41
51245;BME280;37840;47.562;18.738;2023-02-02T11:58:24;99621.06;;;7.33;55.76
51245;BME280;37840;47.562;18.738;2023-02-02T12:00:53;99618.53;;;7.31;55.99
51245;BME280;37840;47.562;18.738;2023-02-02T12:03:28;99621.56;;;7.25;56.17
51245;BME280;37840;47.562;18.738;2023-02-02T12:05:54;99622.84;;;7.18;56.29
51245;BME280;37840;47.562;18.738;2023-02-02T12:08:20;99632.41;;;7.21;56.84
51245;BME280;37840;47.562;18.738;2023-02-02T12:11:02;99630.41;;;7.24;57.26
51245;BME280;37840;47.562;18.738;2023-02-02T12:19:37;99640.88;;;7.42;56.26
51245;BME280;37840;47.562;18.738;2023-02-02T12:24:34;99628.84;;;7.36;56.46
51245;BME280;37840;47.562;18.738;2023-02-02T12:29:43;99620.44;;;7.29;56.85
51245;BME280;37840;47.562;18.738;2023-02-02T12:41:33;99633.81;;;7.12;56.81
51245;BME280;37840;47.562;18.738;2023-02-02T13:01:51;99652.47;;;7.09;58.02
51245;BME280;37840;47.562;18.738;2023-02-02T13:09:11;99662.69;;;6.85;57.38
51245;BME280;37840;47.562;18.738;2023-02-02T13:11:48;99672.56;;;6.81;57.12
51245;BME280;37840;47.562;18.738;2023-02-02T13:14:26;99665.06;;;6.73;57.63
51245;BME280;37840;47.562;18.738;2023-02-02T13:16:59;99668.84;;;6.69;58.16
51245;BME280;37840;47.562;18.738;2023-02-02T13:19:37;99666.44;;;6.65;58.45
51245;BME280;37840;47.562;18.738;2023-02-02T13:22:09;99669.84;;;6.67;58.13
51245;BME280;37840;47.562;18.738;2023-02-02T13:24:41;99678.88;;;6.63;58.62
51245;BME280;37840;47.562;18.738;2023-02-02T13:27:13;99671.91;;;6.62;58.97
51245;BME280;37840;47.562;18.738;2023-02-02T13:29:49;99680.84;;;6.59;58.86
51245;BME280;37840;47.562;18.738;2023-02-02T13:32:31;99679.97;;;6.59;58.88
51245;BME280;37840;47.562;18.738;2023-02-02T13:40:31;99677.25;;;6.60;59.19
51245;BME280;37840;47.562;18.738;2023-02-02T14:02:43;99676.75;;;6.53;59.63
51245;BME280;37840;47.562;18.738;2023-02-02T14:05:30;99685.03;;;6.63;59.65
51245;BME280;37840;47.562;18.738;2023-02-02T14:08:05;99692.00;;;6.64;59.66
51245;BME280;37840;47.562;18.738;2023-02-02T14:10:36;99692.00;;;6.64;59.47
51245;BME280;37840;47.562;18.738;2023-02-02T14:13:13;99700.00;;;6.63;59.23
51245;BME280;37840;47.562;18.738;2023-02-02T14:16:01;99702.00;;;6.59;59.34
51245;BME280;37840;47.562;18.738;2023-02-02T14:27:03;99708.78;;;6.47;59.70
51245;BME280;37840;47.562;18.738;2023-02-02T14:45:31;99696.69;;;6.43;59.91
51245;BME280;37840;47.562;18.738;2023-02-02T14:48:10;99707.19;;;6.45;60.01
51245;BME280;37840;47.562;18.738;2023-02-02T14:50:50;99708.88;;;6.46;59.42
51245;BME280;37840;47.562;18.738;2023-02-02T14:53:36;99700.94;;;6.46;60.32
51245;BME280;37840;47.562;18.738;2023-02-02T14:56:14;99704.69;;;6.42;60.12
51245;BME280;37840;47.562;18.738;2023-02-02T14:58:57;99706.22;;;6.46;60.17
51245;BME280;37840;47.562;18.738;2023-02-02T15:01:35;99708.09;;;6.44;60.03
51245;BME280;37840;47.562;18.738;2023-02-02T15:06:48;99701.38;;;6.38;60.18
51245;BME280;37840;47.562;18.738;2023-02-02T15:14:33;99704.75;;;6.24;60.42
51245;BME280;37840;47.562;18.738;2023-02-02T15:17:05;99715.31;;;6.24;60.77
51245;BME280;37840;47.562;18.738;2023-02-02T15:19:40;99710.22;;;6.21;60.59
51245;BME280;37840;47.562;18.738;2023-02-02T15:22:25;99711.31;;;6.17;61.13
51245;BME280;37840;47.562;18.738;2023-02-02T15:24:56;99731.72;;;6.13;61.49
51245;BME280;37840;47.562;18.738;2023-02-02T15:27:23;99740.75;;;6.09;61.52
51245;BME280;37840;47.562;18.738;2023-02-02T15:29:56;99738.22;;;6.08;61.54
51245;BME280;37840;47.562;18.738;2023-02-02T15:32:25;99736.47;;;6.07;61.67
51245;BME280;37840;47.562;18.738;2023-02-02T15:34:57;99741.06;;;6.03;61.89
51245;BME280;37840;47.562;18.738;2023-02-02T15:37:29;99747.22;;;6.04;61.82
51245;BME280;37840;47.562;18.738;2023-02-02T15:40:01;99747.28;;;6.02;61.77
51245;BME280;37840;47.562;18.738;2023-02-02T15:42:41;99744.78;;;5.99;61.64
51245;BME280;37840;47.562;18.738;2023-02-02T15:48:18;99760.72;;;5.98;61.86
51245;BME280;37840;47.562;18.738;2023-02-02T15:50:45;99759.22;;;5.92;61.92